Private Wetterstation Wechselburg
Wetterdaten: Donnerstag, 06.06.2013
Datum Zeit Temp. +2m Bodentemp. Temp.+5cm Temp. Wind Windchill X Diff Temp. Feuchte +2m Feuchte +5cm Sonnenschein Luftdruck Regen Wind Richtung Richtung Sonnenschein UV Taupunkt Windchill Windben
06.06.2013 00:00 8,9 C 20,5 C 9,7 C 8,8 C 8,7 C 0,0 C 85 % 84 % 0 % 1019,6 hPa 0,0 l/m 0,0 km/h (0 Bft) SW 225 0 min 0,0 UV-I 6,5 C 8,7 C 0,0 km/h (0 Bft)
06.06.2013 00:05 8,8 C 20,4 C 9,8 C 8,7 C 8,6 C 0,0 C 85 % 84 % 0 % 1019,6 hPa 0,0 l/m 0,0 km/h (0 Bft) W-SW 247 0 min 0,0 UV-I 6,4 C 8,6 C 0,0 km/h (0 Bft)
06.06.2013 00:10 8,7 C 20,5 C 9,7 C 8,6 C 8,5 C 0,0 C 85 % 84 % 0 % 1019,6 hPa 0,0 l/m 0,0 km/h (0 Bft) O-NO 67 0 min 0,0 UV-I 6,3 C 8,5 C 0,0 km/h (0 Bft)
06.06.2013 00:15 8,7 C 20,5 C 9,6 C 8,6 C 8,5 C 0,0 C 85 % 84 % 0 % 1019,9 hPa 0,0 l/m 0,0 km/h (0 Bft) O-NO 67 0 min 0,0 UV-I 6,3 C 8,5 C 0,0 km/h (0 Bft)
06.06.2013 00:20 8,5 C 20,5 C 9,5 C 8,5 C 8,4 C 0,0 C 85 % 84 % 0 % 1019,9 hPa 0,0 l/m 0,0 km/h (0 Bft) N-NW 337 0 min 0,0 UV-I 6,1 C 8,4 C 0,0 km/h (0 Bft)
06.06.2013 00:25 8,4 C 20,5 C 9,4 C 8,4 C 8,3 C 0,0 C 85 % 84 % 0 % 1019,9 hPa 0,0 l/m 0,0 km/h (0 Bft) S 180 0 min 0,0 UV-I 6,0 C 8,3 C 0,0 km/h (0 Bft)
06.06.2013 00:30 8,3 C 20,4 C 9,3 C 8,2 C 8,1 C 0,0 C 85 % 84 % 0 % 1019,9 hPa 0,0 l/m 0,0 km/h (0 Bft) S 180 0 min 0,0 UV-I 5,9 C 8,1 C 0,0 km/h (0 Bft)
06.06.2013 00:35 8,3 C 20,4 C 9,3 C 8,2 C 8,1 C 0,0 C 86 % 84 % 0 % 1020,1 hPa 0,0 l/m 0,0 km/h (0 Bft) W 270 0 min 0,0 UV-I 6,1 C 8,1 C 0,0 km/h (0 Bft)
06.06.2013 00:41 8,0 C 20,4 C 9,2 C 8,0 C 8,0 C 0,0 C 86 % 85 % 0 % 1020,1 hPa 0,0 l/m 0,0 km/h (0 Bft) N 0 0 min 0,0 UV-I 5,8 C 8,0 C 0,0 km/h (0 Bft)
06.06.2013 01:00 7,6 C 20,4 C 8,9 C 7,6 C 7,6 C 0,0 C 86 % 84 % 0 % 1019,8 hPa 0,0 l/m 0,0 km/h (0 Bft) NW 315 0 min 0,0 UV-I 5,4 C 7,6 C 0,0 km/h (0 Bft)
06.06.2013 01:05 7,6 C 20,4 C 8,9 C 7,6 C 7,6 C 0,0 C 86 % 84 % 0 % 1019,8 hPa 0,0 l/m 0,0 km/h (0 Bft) W-SW 247 0 min 0,0 UV-I 5,4 C 7,6 C 0,0 km/h (0 Bft)
06.06.2013 01:10 7,5 C 20,4 C 8,8 C 7,6 C 7,6 C 0,1 C 86 % 84 % 0 % 1019,8 hPa 0,0 l/m 0,0 km/h (0 Bft) N-NW 337 0 min 0,0 UV-I 5,3 C 7,6 C 0,0 km/h (0 Bft)
06.06.2013 01:15 7,5 C 20,3 C 8,8 C 7,5 C 7,5 C 0,0 C 86 % 84 % 0 % 1020,1 hPa 0,0 l/m 0,0 km/h (0 Bft) W-NW 292 0 min 0,0 UV-I 5,3 C 7,5 C 0,0 km/h (0 Bft)
06.06.2013 01:20 7,3 C 20,3 C 8,8 C 7,4 C 7,4 C 0,1 C 86 % 84 % 0 % 1020,1 hPa 0,0 l/m 0,0 km/h (0 Bft) SW 225 0 min 0,0 UV-I 5,1 C 7,4 C 0,0 km/h (0 Bft)
06.06.2013 01:25 7,3 C 20,4 C 8,8 C 7,4 C 7,4 C 0,1 C 86 % 84 % 0 % 1020,1 hPa 0,0 l/m 0,0 km/h (0 Bft) W-SW 247 0 min 0,0 UV-I 5,1 C 7,4 C 0,0 km/h (0 Bft)
06.06.2013 01:30 7,2 C 20,4 C 8,7 C 7,4 C 7,4 C 0,2 C 86 % 84 % 0 % 1020,1 hPa 0,0 l/m 0,0 km/h (0 Bft) O-NO 67 0 min 0,0 UV-I 5,0 C 7,4 C 0,0 km/h (0 Bft)
06.06.2013 01:35 7,1 C 20,4 C 8,5 C 7,4 C 7,4 C 0,3 C 87 % 85 % 0 % 1019,9 hPa 0,0 l/m 0,0 km/h (0 Bft) O 90 0 min 0,0 UV-I 5,1 C 7,4 C 0,0 km/h (0 Bft)
06.06.2013 01:40 7,1 C 20,4 C 8,4 C 7,4 C 7,4 C 0,3 C 87 % 85 % 0 % 1019,9 hPa 0,0 l/m 0,0 km/h (0 Bft) O 90 0 min 0,0 UV-I 5,1 C 7,4 C 0,0 km/h (0 Bft)
06.06.2013 01:45 7,1 C 20,4 C 8,4 C 7,4 C 7,4 C 0,3 C 87 % 85 % 0 % 1019,9 hPa 0,0 l/m 0,0 km/h (0 Bft) O 90 0 min 0,0 UV-I 5,1 C 7,4 C 0,0 km/h (0 Bft)
06.06.2013 01:50 7,1 C 20,4 C 8,5 C 7,3 C 7,3 C 0,2 C 87 % 85 % 0 % 1019,9 hPa 0,0 l/m 0,0 km/h (0 Bft) O 90 0 min 0,0 UV-I 5,1 C 7,3 C 0,0 km/h (0 Bft)
06.06.2013 01:55 7,1 C 20,4 C 8,5 C 7,2 C 7,2 C 0,1 C 87 % 85 % 0 % 1019,8 hPa 0,0 l/m 0,0 km/h (0 Bft) O 90 0 min 0,0 UV-I 5,1 C 7,2 C 0,0 km/h (0 Bft)
06.06.2013 02:00 6,9 C 20,4 C 8,3 C 7,1 C 7,1 C 0,2 C 87 % 85 % 0 % 1019,8 hPa 0,0 l/m 0,0 km/h (0 Bft) W-SW 247 0 min 0,0 UV-I 4,9 C 7,1 C 0,0 km/h (0 Bft)
06.06.2013 02:05 6,8 C 20,3 C 8,3 C 7,1 C 7,1 C 0,3 C 87 % 85 % 0 % 1019,8 hPa 0,0 l/m 0,0 km/h (0 Bft) W-SW 247 0 min 0,0 UV-I 4,8 C 7,1 C 0,0 km/h (0 Bft)
06.06.2013 02:10 6,7 C 20,3 C 8,3 C 7,0 C 7,0 C 0,3 C 87 % 85 % 0 % 1019,8 hPa 0,0 l/m 0,0 km/h (0 Bft) W-SW 247 0 min 0,0 UV-I 4,7 C 7,0 C 0,0 km/h (0 Bft)
06.06.2013 02:15 6,6 C 20,3 C 8,3 C 7,0 C 7,0 C 0,4 C 87 % 85 % 0 % 1019,9 hPa 0,0 l/m 0,0 km/h (0 Bft) W-SW 247 0 min 0,0 UV-I 4,6 C 7,0 C 0,0 km/h (0 Bft)
06.06.2013 02:20 6,7 C 20,3 C 8,1 C 6,9 C 6,9 C 0,2 C 87 % 85 % 0 % 1019,9 hPa 0,0 l/m 0,0 km/h (0 Bft) W-SW 247 0 min 0,0 UV-I 4,7 C 6,9 C 0,0 km/h (0 Bft)
06.06.2013 02:25 6,5 C 20,3 C 8,1 C 6,9 C 6,9 C 0,4 C 88 % 85 % 0 % 1019,9 hPa 0,0 l/m 0,0 km/h (0 Bft) W-SW 247 0 min 0,0 UV-I 4,7 C 6,9 C 0,0 km/h (0 Bft)
06.06.2013 02:30 6,5 C 20,3 C 8,1 C 6,8 C 6,8 C 0,3 C 88 % 85 % 0 % 1019,9 hPa 0,0 l/m 0,0 km/h (0 Bft) W-SW 247 0 min 0,0 UV-I 4,7 C 6,8 C 0,0 km/h (0 Bft)
06.06.2013 02:35 6,4 C 20,3 C 8,0 C 6,8 C 6,8 C 0,4 C 87 % 85 % 0 % 1019,8 hPa 0,0 l/m 0,0 km/h (0 Bft) W-SW 247 0 min 0,0 UV-I 4,4 C 6,8 C 0,0 km/h (0 Bft)
06.06.2013 02:40 6,4 C 20,3 C 8,1 C 6,7 C 6,7 C 0,3 C 87 % 85 % 0 % 1019,8 hPa 0,0 l/m 0,0 km/h (0 Bft) W-SW 247 0 min 0,0 UV-I 4,4 C 6,7 C 0,0 km/h (0 Bft)
06.06.2013 02:45 6,4 C 20,3 C 8,1 C 6,8 C 6,8 C 0,4 C 87 % 85 % 0 % 1019,8 hPa 0,0 l/m 0,0 km/h (0 Bft) W-SW 247 0 min 0,0 UV-I 4,4 C 6,8 C 0,0 km/h (0 Bft)
06.06.2013 02:50 6,4 C 20,3 C 8,1 C 6,9 C 6,9 C 0,5 C 88 % 85 % 0 % 1019,8 hPa 0,0 l/m 0,0 km/h (0 Bft) O-SO 112 0 min 0,0 UV-I 4,6 C 6,9 C 0,0 km/h (0 Bft)
06.06.2013 02:55 6,4 C 20,3 C 8,0 C 6,9 C 6,9 C 0,5 C 88 % 85 % 0 % 1019,9 hPa 0,0 l/m 0,0 km/h (0 Bft) O-SO 112 0 min 0,0 UV-I 4,6 C 6,9 C 0,0 km/h (0 Bft)
06.06.2013 03:00 6,4 C 20,3 C 7,9 C 6,9 C 6,9 C 0,5 C 88 % 85 % 0 % 1019,9 hPa 0,0 l/m 0,0 km/h (0 Bft) O-SO 112 0 min 0,0 UV-I 4,6 C 6,9 C 0,0 km/h (0 Bft)
06.06.2013 03:05 6,4 C 20,3 C 7,9 C 6,9 C 6,9 C 0,5 C 88 % 85 % 0 % 1019,9 hPa 0,0 l/m 0,0 km/h (0 Bft) O-SO 112 0 min 0,0 UV-I 4,6 C 6,9 C 0,0 km/h (0 Bft)
06.06.2013 03:10 6,5 C 20,3 C 7,9 C 6,9 C 6,9 C 0,4 C 88 % 85 % 0 % 1019,9 hPa 0,0 l/m 0,0 km/h (0 Bft) O-SO 112 0 min 0,0 UV-I 4,7 C 6,9 C 0,0 km/h (0 Bft)
06.06.2013 03:15 6,5 C 20,3 C 7,9 C 6,9 C 6,9 C 0,4 C 88 % 85 % 0 % 1020,1 hPa 0,0 l/m 0,0 km/h (0 Bft) O-SO 112 0 min 0,0 UV-I 4,7 C 6,9 C 0,0 km/h (0 Bft)
06.06.2013 03:20 6,3 C 20,2 C 7,9 C 6,7 C 6,7 C 0,4 C 88 % 86 % 0 % 1020,1 hPa 0,0 l/m 0,0 km/h (0 Bft) O-SO 112 0 min 0,0 UV-I 4,5 C 6,7 C 0,0 km/h (0 Bft)
06.06.2013 03:25 6,3 C 20,2 C 7,9 C 6,6 C 6,6 C 0,3 C 88 % 86 % 0 % 1020,1 hPa 0,0 l/m 0,0 km/h (0 Bft) O-SO 112 0 min 0,0 UV-I 4,5 C 6,6 C 0,0 km/h (0 Bft)
06.06.2013 03:30 6,3 C 20,2 C 7,9 C 6,6 C 6,6 C 0,3 C 88 % 86 % 0 % 1020,1 hPa 0,0 l/m 0,0 km/h (0 Bft) O-SO 112 0 min 0,0 UV-I 4,5 C 6,6 C 0,0 km/h (0 Bft)
06.06.2013 03:35 6,3 C 20,2 C 7,9 C 6,6 C 6,6 C 0,3 C 89 % 86 % 0 % 1020,5 hPa 0,0 l/m 0,0 km/h (0 Bft) O-SO 112 0 min 0,0 UV-I 4,6 C 6,6 C 0,0 km/h (0 Bft)
06.06.2013 03:40 6,3 C 20,2 C 7,7 C 6,6 C 6,6 C 0,3 C 89 % 86 % 0 % 1020,5 hPa 0,0 l/m 0,0 km/h (0 Bft) O-SO 112 0 min 0,0 UV-I 4,6 C 6,6 C 0,0 km/h (0 Bft)
06.06.2013 03:45 6,1 C 20,2 C 7,7 C 6,5 C 6,5 C 0,4 C 88 % 86 % 0 % 1020,5 hPa 0,0 l/m 0,0 km/h (0 Bft) W-SW 247 0 min 0,0 UV-I 4,3 C 6,5 C 0,0 km/h (0 Bft)
06.06.2013 03:50 6,1 C 20,2 C 7,6 C 6,4 C 6,4 C 0,3 C 88 % 86 % 0 % 1020,5 hPa 0,0 l/m 0,0 km/h (0 Bft) W-SW 247 0 min 0,0 UV-I 4,3 C 6,4 C 0,0 km/h (0 Bft)
06.06.2013 03:55 6,1 C 20,2 C 7,6 C 6,4 C 6,4 C 0,3 C 88 % 86 % 0 % 1019,9 hPa 0,0 l/m 0,0 km/h (0 Bft) O-NO 67 0 min 0,0 UV-I 4,3 C 6,4 C 0,0 km/h (0 Bft)
06.06.2013 04:00 6,0 C 20,1 C 7,6 C 6,5 C 6,5 C 0,5 C 89 % 86 % 0 % 1019,9 hPa 0,0 l/m 0,0 km/h (0 Bft) NW 315 0 min 0,0 UV-I 4,3 C 6,5 C 0,0 km/h (0 Bft)
06.06.2013 04:05 6,1 C 20,1 C 7,6 C 6,4 C 6,4 C 0,3 C 89 % 86 % 0 % 1019,9 hPa 0,0 l/m 0,0 km/h (0 Bft) NW 315 0 min 0,0 UV-I 4,4 C 6,4 C 0,0 km/h (0 Bft)
06.06.2013 04:10 6,0 C 20,1 C 7,5 C 6,3 C 6,3 C 0,3 C 89 % 86 % 0 % 1019,9 hPa 0,0 l/m 0,0 km/h (0 Bft) NW 315 0 min 0,0 UV-I 4,3 C 6,3 C 0,0 km/h (0 Bft)
06.06.2013 04:15 5,9 C 20,1 C 7,6 C 6,2 C 6,2 C 0,3 C 89 % 86 % 0 % 1020,1 hPa 0,0 l/m 0,0 km/h (0 Bft) W-SW 247 0 min 0,0 UV-I 4,2 C 6,2 C 0,0 km/h (0 Bft)
06.06.2013 04:20 5,8 C 20,1 C 7,6 C 6,2 C 6,2 C 0,4 C 89 % 86 % 0 % 1020,1 hPa 0,0 l/m 0,0 km/h (0 Bft) W 270 0 min 0,0 UV-I 4,1 C 6,2 C 0,0 km/h (0 Bft)
06.06.2013 04:25 5,7 C 20,1 C 7,4 C 6,2 C 6,2 C 0,5 C 89 % 86 % 0 % 1020,1 hPa 0,0 l/m 0,0 km/h (0 Bft) W 270 0 min 0,0 UV-I 4,0 C 6,2 C 0,0 km/h (0 Bft)
06.06.2013 04:30 5,6 C 20,1 C 7,4 C 6,1 C 6,1 C 0,5 C 89 % 86 % 0 % 1020,1 hPa 0,0 l/m 0,0 km/h (0 Bft) SW 225 0 min 0,0 UV-I 3,9 C 6,1 C 0,0 km/h (0 Bft)
06.06.2013 04:35 5,7 C 20,1 C 7,3 C 6,0 C 6,0 C 0,3 C 89 % 86 % 0 % 1020,1 hPa 0,0 l/m 0,0 km/h (0 Bft) N 360 0 min 0,0 UV-I 4,0 C 6,0 C 0,0 km/h (0 Bft)
06.06.2013 04:40 5,7 C 20,1 C 7,2 C 6,1 C 6,1 C 0,4 C 89 % 86 % 0 % 1020,1 hPa 0,0 l/m 0,0 km/h (0 Bft) O-NO 67 0 min 0,0 UV-I 4,0 C 6,1 C 0,0 km/h (0 Bft)
06.06.2013 04:45 5,7 C 20,1 C 7,2 C 6,2 C 6,2 C 0,5 C 89 % 86 % 0 % 1020,1 hPa 0,0 l/m 0,0 km/h (0 Bft) O-NO 67 0 min 0,0 UV-I 4,0 C 6,2 C 0,0 km/h (0 Bft)
06.06.2013 04:50 5,7 C 20,0 C 7,2 C 6,2 C 6,2 C 0,5 C 89 % 86 % 0 % 1020,1 hPa 0,0 l/m 0,0 km/h (0 Bft) O-NO 67 0 min 0,0 UV-I 4,0 C 6,2 C 0,0 km/h (0 Bft)
06.06.2013 04:55 5,6 C 20,0 C 7,3 C 6,2 C 6,2 C 0,6 C 89 % 86 % 0 % 1020,4 hPa 0,0 l/m 0,0 km/h (0 Bft) O 90 0 min 0,0 UV-I 3,9 C 6,2 C 0,0 km/h (0 Bft)
06.06.2013 05:00 5,7 C 20,0 C 7,3 C 6,3 C 6,3 C 0,6 C 89 % 86 % 0 % 1020,4 hPa 0,0 l/m 0,0 km/h (0 Bft) O 90 0 min 0,0 UV-I 4,0 C 6,3 C 0,0 km/h (0 Bft)
06.06.2013 05:05 5,7 C 20,0 C 7,3 C 6,3 C 6,3 C 0,6 C 89 % 86 % 0 % 1020,4 hPa 0,0 l/m 0,0 km/h (0 Bft) O-NO 67 0 min 0,0 UV-I 4,0 C 6,3 C 0,0 km/h (0 Bft)
06.06.2013 05:10 5,6 C 20,0 C 7,3 C 6,3 C 6,3 C 0,7 C 89 % 86 % 0 % 1020,4 hPa 0,0 l/m 0,0 km/h (0 Bft) O-NO 67 0 min 0,0 UV-I 3,9 C 6,3 C 0,0 km/h (0 Bft)
06.06.2013 05:15 5,6 C 20,0 C 7,2 C 6,2 C 6,2 C 0,6 C 89 % 86 % 16 % 1020,6 hPa 0,0 l/m 0,0 km/h (0 Bft) W-SW 247 5 min 0,0 UV-I 3,9 C 6,2 C 0,0 km/h (0 Bft)
06.06.2013 05:20 5,6 C 20,0 C 7,4 C 6,1 C 6,1 C 0,5 C 89 % 86 % 13 % 1020,6 hPa 0,0 l/m 0,0 km/h (0 Bft) SW 225 5 min 0,0 UV-I 3,9 C 6,1 C 0,0 km/h (0 Bft)
06.06.2013 05:25 5,5 C 19,9 C 7,2 C 6,0 C 6,0 C 0,5 C 89 % 86 % 13 % 1020,6 hPa 0,0 l/m 0,0 km/h (0 Bft) SW 225 5 min 0,0 UV-I 3,8 C 6,0 C 0,0 km/h (0 Bft)
06.06.2013 05:30 5,5 C 19,9 C 7,1 C 6,0 C 6,0 C 0,5 C 89 % 86 % 13 % 1020,6 hPa 0,0 l/m 0,0 km/h (0 Bft) S 180 0 min 0,0 UV-I 3,8 C 6,0 C 0,0 km/h (0 Bft)
06.06.2013 05:35 5,5 C 19,9 C 7,1 C 6,1 C 6,1 C 0,6 C 89 % 86 % 16 % 1020,9 hPa 0,0 l/m 0,0 km/h (0 Bft) W-SW 247 0 min 0,0 UV-I 3,8 C 6,1 C 0,0 km/h (0 Bft)
06.06.2013 05:40 5,5 C 19,9 C 7,1 C 6,2 C 6,2 C 0,7 C 89 % 86 % 18 % 1020,9 hPa 0,0 l/m 0,0 km/h (0 Bft) W 270 0 min 0,0 UV-I 3,8 C 6,2 C 0,0 km/h (0 Bft)
06.06.2013 05:45 5,5 C 19,9 C 7,2 C 6,3 C 6,3 C 0,8 C 89 % 86 % 21 % 1020,9 hPa 0,0 l/m 0,0 km/h (0 Bft) W-SW 247 0 min 0,0 UV-I 3,8 C 6,3 C 0,0 km/h (0 Bft)
06.06.2013 05:50 5,5 C 19,9 C 7,4 C 6,4 C 6,4 C 0,9 C 89 % 86 % 24 % 1020,9 hPa 0,0 l/m 0,0 km/h (0 Bft) W-SW 247 0 min 0,0 UV-I 3,8 C 6,4 C 0,0 km/h (0 Bft)
06.06.2013 05:55 5,4 C 19,9 C 7,5 C 6,5 C 6,5 C 1,1 C 89 % 86 % 29 % 1020,7 hPa 0,0 l/m 0,0 km/h (0 Bft) W 270 0 min 0,0 UV-I 3,7 C 6,5 C 0,0 km/h (0 Bft)
06.06.2013 06:00 5,5 C 19,9 C 7,3 C 6,6 C 6,6 C 1,1 C 90 % 86 % 29 % 1020,7 hPa 0,0 l/m 0,0 km/h (0 Bft) N-NW 337 0 min 0,0 UV-I 4,0 C 6,6 C 0,0 km/h (0 Bft)
06.06.2013 06:05 5,6 C 19,9 C 7,3 C 6,7 C 6,7 C 1,1 C 90 % 86 % 29 % 1020,7 hPa 0,0 l/m 0,0 km/h (0 Bft) N-NW 337 0 min 0,0 UV-I 4,1 C 6,7 C 0,0 km/h (0 Bft)
06.06.2013 06:10 5,7 C 19,9 C 7,5 C 6,9 C 6,9 C 1,2 C 90 % 86 % 32 % 1020,7 hPa 0,0 l/m 0,0 km/h (0 Bft) N-NW 337 0 min 0,0 UV-I 4,2 C 6,9 C 0,0 km/h (0 Bft)
06.06.2013 06:15 5,9 C 19,9 C 7,7 C 7,1 C 7,1 C 1,2 C 90 % 86 % 32 % 1020,6 hPa 0,0 l/m 0,0 km/h (0 Bft) N-NW 337 0 min 0,0 UV-I 4,4 C 7,1 C 0,0 km/h (0 Bft)
06.06.2013 06:20 5,9 C 19,9 C 7,9 C 7,4 C 7,4 C 1,5 C 90 % 86 % 39 % 1020,6 hPa 0,0 l/m 0,0 km/h (0 Bft) SW 225 0 min 0,0 UV-I 4,4 C 7,4 C 0,0 km/h (0 Bft)
06.06.2013 06:25 6,0 C 19,8 C 7,9 C 7,6 C 7,6 C 1,6 C 90 % 86 % 42 % 1020,6 hPa 0,0 l/m 0,5 km/h (0 Bft) SW 225 0 min 0,0 UV-I 4,5 C 7,6 C 2,3 km/h (1 Bft)
06.06.2013 06:30 6,0 C 19,8 C 8,0 C 7,6 C 7,6 C 1,6 C 90 % 86 % 42 % 1020,6 hPa 0,0 l/m 0,8 km/h (0 Bft) SW 225 0 min 0,0 UV-I 4,5 C 7,6 C 0,0 km/h (0 Bft)
06.06.2013 06:35 6,1 C 19,8 C 8,0 C 7,6 C 7,6 C 1,5 C 90 % 86 % 39 % 1020,6 hPa 0,0 l/m 0,5 km/h (0 Bft) W 270 0 min 0,0 UV-I 4,6 C 7,6 C 0,0 km/h (0 Bft)
06.06.2013 06:41 6,2 C 19,8 C 8,1 C 7,9 C 7,9 C 1,7 C 91 % 86 % 45 % 1020,6 hPa 0,0 l/m 0,0 km/h (0 Bft) N 0 0 min 0,1 UV-I 4,8 C 7,9 C 0,0 km/h (0 Bft)
06.06.2013 07:00 6,9 C 19,8 C 8,7 C 8,9 C 8,9 C 2,0 C 91 % 86 % 53 % 1020,6 hPa 0,0 l/m 0,3 km/h (0 Bft) SW 225 0 min 0,2 UV-I 5,5 C 8,9 C 1,8 km/h (1 Bft)
06.06.2013 07:05 6,9 C 19,8 C 8,8 C 8,9 C 8,9 C 2,0 C 91 % 86 % 53 % 1020,6 hPa 0,0 l/m 0,3 km/h (0 Bft) SW 225 0 min 0,2 UV-I 5,5 C 8,9 C 0,0 km/h (0 Bft)
06.06.2013 07:10 7,0 C 19,8 C 8,9 C 8,9 C 8,9 C 1,9 C 91 % 86 % 50 % 1020,6 hPa 0,0 l/m 0,2 km/h (0 Bft) S-SO 157 0 min 0,0 UV-I 5,6 C 8,9 C 0,0 km/h (0 Bft)
06.06.2013 07:15 7,1 C 19,7 C 8,9 C 9,1 C 9,1 C 2,0 C 91 % 86 % 53 % 1020,9 hPa 0,0 l/m 0,2 km/h (0 Bft) S-SW 202 0 min 0,0 UV-I 5,7 C 9,1 C 0,0 km/h (0 Bft)
06.06.2013 07:20 7,2 C 19,7 C 9,0 C 9,4 C 9,4 C 2,2 C 91 % 86 % 58 % 1020,9 hPa 0,0 l/m 0,0 km/h (0 Bft) W-SW 247 0 min 0,0 UV-I 5,8 C 9,4 C 0,0 km/h (0 Bft)
06.06.2013 07:25 7,3 C 19,7 C 9,2 C 9,6 C 9,6 C 2,3 C 91 % 86 % 61 % 1020,9 hPa 0,0 l/m 0,0 km/h (0 Bft) W-SW 247 0 min 0,0 UV-I 5,9 C 9,6 C 0,0 km/h (0 Bft)
06.06.2013 07:30 7,6 C 19,7 C 9,4 C 9,9 C 9,9 C 2,3 C 92 % 86 % 61 % 1020,9 hPa 0,0 l/m 0,0 km/h (0 Bft) N 360 0 min 0,0 UV-I 6,4 C 9,9 C 0,0 km/h (0 Bft)
06.06.2013 07:35 7,6 C 19,7 C 9,6 C 10,2 C 10,2 C 2,6 C 91 % 86 % 68 % 1020,8 hPa 0,0 l/m 0,0 km/h (0 Bft) N 360 0 min 0,0 UV-I 6,2 C 10,2 C 0,0 km/h (0 Bft)
06.06.2013 07:40 7,9 C 19,6 C 10,1 C 11,0 C 11,0 C 3,1 C 92 % 86 % 82 % 1020,8 hPa 0,0 l/m 0,0 km/h (0 Bft) SW 225 0 min 0,0 UV-I 6,7 C 11,0 C 1,6 km/h (1 Bft)
06.06.2013 07:45 8,1 C 19,6 C 10,1 C 11,3 C 11,3 C 3,2 C 92 % 85 % 84 % 1020,8 hPa 0,0 l/m 0,2 km/h (0 Bft) W 270 0 min 0,0 UV-I 6,9 C 11,3 C 1,6 km/h (1 Bft)
06.06.2013 07:50 8,3 C 19,5 C 10,2 C 11,5 C 11,5 C 3,2 C 92 % 85 % 84 % 1020,8 hPa 0,0 l/m 0,3 km/h (0 Bft) SW 225 0 min 0,0 UV-I 7,1 C 11,5 C 0,0 km/h (0 Bft)
06.06.2013 07:55 8,4 C 19,5 C 10,4 C 12,2 C 12,2 C 3,8 C 92 % 86 % 100 % 1020,9 hPa 0,0 l/m 0,2 km/h (0 Bft) SW 225 5 min 0,0 UV-I 7,2 C 12,2 C 0,0 km/h (0 Bft)
06.06.2013 08:00 9,1 C 19,5 C 10,8 C 16,3 C 16,3 C 7,2 C 92 % 85 % 100 % 1020,9 hPa 0,0 l/m 0,2 km/h (0 Bft) W 270 5 min 0,0 UV-I 7,9 C 16,3 C 0,0 km/h (0 Bft)
06.06.2013 08:05 9,5 C 19,5 C 10,8 C 17,7 C 17,7 C 8,2 C 92 % 85 % 100 % 1020,9 hPa 0,0 l/m 0,2 km/h (0 Bft) SW 225 5 min 0,0 UV-I 8,3 C 17,7 C 0,0 km/h (0 Bft)
06.06.2013 08:10 9,8 C 19,4 C 11,1 C 19,6 C 19,6 C 9,8 C 93 % 85 % 100 % 1020,9 hPa 0,0 l/m 0,2 km/h (0 Bft) W-SW 247 5 min 0,0 UV-I 8,7 C 19,6 C 1,6 km/h (1 Bft)
06.06.2013 08:15 10,3 C 19,3 C 11,1 C 20,4 C 20,4 C 10,1 C 93 % 85 % 100 % 1021,0 hPa 0,0 l/m 0,2 km/h (0 Bft) S 180 5 min 0,0 UV-I 9,2 C 20,4 C 0,0 km/h (0 Bft)
06.06.2013 08:20 10,7 C 19,2 C 11,1 C 21,3 C 21,3 C 10,6 C 92 % 85 % 100 % 1021,0 hPa 0,0 l/m 0,3 km/h (0 Bft) S-SW 202 5 min 0,0 UV-I 9,5 C 21,3 C 2,9 km/h (1 Bft)
06.06.2013 08:25 10,9 C 19,2 C 11,4 C 21,7 C 21,7 C 10,8 C 92 % 85 % 100 % 1021,0 hPa 0,0 l/m 0,5 km/h (0 Bft) W-SW 247 5 min 0,0 UV-I 9,7 C 21,7 C 1,6 km/h (1 Bft)
06.06.2013 08:30 11,3 C 19,2 C 11,6 C 22,1 C 22,1 C 10,8 C 91 % 84 % 100 % 1021,0 hPa 0,0 l/m 1,3 km/h (1 Bft) SW 225 5 min 0,0 UV-I 9,9 C 22,1 C 2,9 km/h (1 Bft)
06.06.2013 08:35 11,3 C 19,2 C 11,6 C 22,2 C 22,2 C 10,9 C 90 % 84 % 100 % 1021,1 hPa 0,0 l/m 1,4 km/h (1 Bft) W 270 5 min 0,0 UV-I 9,7 C 22,2 C 0,0 km/h (0 Bft)
06.06.2013 08:40 11,6 C 19,2 C 11,9 C 23,0 C 23,0 C 11,4 C 89 % 84 % 100 % 1021,1 hPa 0,0 l/m 1,0 km/h (0 Bft) W 270 5 min 0,0 UV-I 9,8 C 23,0 C 0,0 km/h (0 Bft)
06.06.2013 08:45 11,9 C 19,2 C 12,0 C 23,6 C 23,6 C 11,7 C 89 % 84 % 100 % 1021,1 hPa 0,0 l/m 0,3 km/h (0 Bft) W-NW 292 5 min 0,0 UV-I 10,1 C 23,6 C 0,0 km/h (0 Bft)
06.06.2013 08:50 12,6 C 19,2 C 12,4 C 23,4 C 23,4 C 10,8 C 87 % 84 % 100 % 1021,1 hPa 0,0 l/m 0,2 km/h (0 Bft) N-NW 337 5 min 0,0 UV-I 10,5 C 23,4 C 3,1 km/h (1 Bft)
06.06.2013 08:55 12,9 C 19,2 C 12,8 C 23,1 C 23,1 C 10,2 C 87 % 84 % 100 % 1021,1 hPa 0,0 l/m 0,2 km/h (0 Bft) S-SO 157 5 min 0,0 UV-I 10,8 C 23,1 C 0,0 km/h (0 Bft)
06.06.2013 09:00 13,9 C 19,3 C 13,2 C 23,5 C 23,5 C 9,6 C 84 % 84 % 100 % 1021,1 hPa 0,0 l/m 0,2 km/h (0 Bft) O-SO 112 5 min 0,0 UV-I 11,2 C 23,5 C 2,3 km/h (1 Bft)
06.06.2013 09:05 14,2 C 19,2 C 13,5 C 23,6 C 23,6 C 9,4 C 84 % 83 % 100 % 1021,1 hPa 0,0 l/m 0,3 km/h (0 Bft) S 180 5 min 0,0 UV-I 11,5 C 23,6 C 1,8 km/h (1 Bft)
06.06.2013 09:10 15,0 C 19,2 C 13,9 C 24,7 C 24,7 C 9,7 C 82 % 83 % 100 % 1021,1 hPa 0,0 l/m 1,1 km/h (1 Bft) NW 315 5 min 0,0 UV-I 12,0 C 24,7 C 3,9 km/h (1 Bft)
06.06.2013 09:15 15,2 C 19,2 C 14,0 C 24,7 C 24,7 C 9,5 C 82 % 83 % 100 % 1021,2 hPa 0,0 l/m 1,3 km/h (1 Bft) O-NO 67 5 min 0,0 UV-I 12,1 C 24,7 C 0,0 km/h (0 Bft)
06.06.2013 09:20 15,7 C 19,2 C 14,3 C 22,7 C 22,7 C 7,0 C 80 % 83 % 100 % 1021,2 hPa 0,0 l/m 1,1 km/h (1 Bft) NW 315 5 min 0,0 UV-I 12,3 C 22,7 C 4,3 km/h (1 Bft)
06.06.2013 09:25 15,5 C 19,2 C 14,8 C 21,9 C 21,9 C 6,4 C 80 % 83 % 100 % 1021,2 hPa 0,0 l/m 1,3 km/h (1 Bft) NW 315 5 min 0,0 UV-I 12,1 C 21,9 C 3,7 km/h (1 Bft)
06.06.2013 09:30 15,6 C 19,2 C 15,2 C 22,0 C 22,0 C 6,4 C 80 % 82 % 100 % 1021,2 hPa 0,0 l/m 1,9 km/h (1 Bft) NW 315 5 min 0,0 UV-I 12,2 C 22,0 C 4,5 km/h (1 Bft)
06.06.2013 09:35 15,5 C 19,2 C 15,3 C 21,5 C 21,5 C 6,0 C 81 % 82 % 100 % 1021,4 hPa 0,0 l/m 1,8 km/h (1 Bft) O-SO 112 5 min 0,0 UV-I 12,3 C 21,5 C 1,9 km/h (1 Bft)
06.06.2013 09:40 15,8 C 19,2 C 15,5 C 21,8 C 21,8 C 6,0 C 80 % 81 % 100 % 1021,4 hPa 0,0 l/m 1,4 km/h (1 Bft) O-NO 67 5 min 0,0 UV-I 12,4 C 21,8 C 1,9 km/h (1 Bft)
06.06.2013 09:45 16,0 C 19,3 C 15,7 C 22,9 C 22,9 C 6,9 C 79 % 81 % 100 % 1021,4 hPa 0,0 l/m 1,0 km/h (0 Bft) W-SW 247 5 min 0,0 UV-I 12,4 C 22,9 C 0,0 km/h (0 Bft)
06.06.2013 09:50 16,0 C 19,3 C 15,7 C 21,7 C 21,7 C 5,7 C 79 % 81 % 100 % 1021,4 hPa 0,0 l/m 1,6 km/h (1 Bft) O-NO 67 5 min 0,0 UV-I 12,4 C 21,7 C 4,8 km/h (1 Bft)
06.06.2013 09:55 15,8 C 19,3 C 15,5 C 20,5 C 20,5 C 4,7 C 79 % 80 % 100 % 1021,5 hPa 0,0 l/m 2,4 km/h (1 Bft) O-NO 67 5 min 0,0 UV-I 12,2 C 20,5 C 5,1 km/h (1 Bft)
06.06.2013 10:00 15,6 C 19,3 C 15,5 C 20,1 C 20,1 C 4,5 C 79 % 80 % 100 % 1021,5 hPa 0,0 l/m 2,9 km/h (1 Bft) NO 45 5 min 0,0 UV-I 12,0 C 20,1 C 5,5 km/h (1 Bft)
06.06.2013 10:05 15,7 C 19,2 C 15,6 C 21,2 C 21,2 C 5,5 C 79 % 80 % 100 % 1021,5 hPa 0,0 l/m 2,9 km/h (1 Bft) O-SO 112 5 min 0,0 UV-I 12,1 C 21,2 C 3,4 km/h (1 Bft)
06.06.2013 10:10 15,8 C 19,2 C 15,4 C 22,4 C 22,4 C 6,6 C 79 % 79 % 100 % 1021,5 hPa 0,0 l/m 2,6 km/h (1 Bft) O-SO 112 5 min 0,0 UV-I 12,2 C 22,4 C 0,0 km/h (0 Bft)
06.06.2013 10:15 15,9 C 19,2 C 15,6 C 23,1 C 23,1 C 7,2 C 79 % 80 % 100 % 1021,2 hPa 0,0 l/m 2,4 km/h (1 Bft) N-NO 22 5 min 0,0 UV-I 12,3 C 23,1 C 2,3 km/h (1 Bft)
06.06.2013 10:20 16,1 C 19,2 C 15,6 C 23,9 C 23,9 C 7,8 C 79 % 80 % 100 % 1021,2 hPa 0,0 l/m 2,6 km/h (1 Bft) O-SO 112 5 min 0,0 UV-I 12,5 C 23,9 C 4,8 km/h (1 Bft)
06.06.2013 10:25 16,0 C 19,2 C 15,6 C 23,5 C 23,5 C 7,5 C 79 % 81 % 100 % 1021,2 hPa 0,0 l/m 2,9 km/h (1 Bft) O-SO 112 5 min 0,0 UV-I 12,4 C 23,5 C 3,5 km/h (1 Bft)
06.06.2013 10:30 16,3 C 19,2 C 15,7 C 23,1 C 23,1 C 6,8 C 79 % 80 % 100 % 1021,2 hPa 0,0 l/m 3,7 km/h (1 Bft) O-SO 112 5 min 0,0 UV-I 12,6 C 23,1 C 7,7 km/h (2 Bft)
06.06.2013 10:35 16,5 C 19,2 C 15,9 C 22,7 C 22,7 C 6,2 C 79 % 80 % 100 % 1020,9 hPa 0,0 l/m 4,2 km/h (1 Bft) O-NO 67 5 min 0,0 UV-I 12,8 C 22,7 C 6,9 km/h (2 Bft)
06.06.2013 10:40 16,8 C 19,2 C 16,0 C 22,7 C 22,7 C 5,9 C 78 % 80 % 100 % 1020,9 hPa 0,0 l/m 3,9 km/h (1 Bft) O-SO 112 5 min 0,0 UV-I 12,9 C 22,7 C 0,0 km/h (0 Bft)
06.06.2013 10:45 17,0 C 19,2 C 16,0 C 23,0 C 23,0 C 6,0 C 78 % 79 % 100 % 1020,9 hPa 0,0 l/m 3,9 km/h (1 Bft) O-NO 67 5 min 0,0 UV-I 13,1 C 23,0 C 3,2 km/h (1 Bft)
06.06.2013 10:50 17,1 C 19,2 C 16,1 C 22,7 C 22,7 C 5,6 C 78 % 79 % 100 % 1020,9 hPa 0,0 l/m 2,9 km/h (1 Bft) S-SO 157 5 min 0,0 UV-I 13,2 C 22,7 C 2,4 km/h (1 Bft)
06.06.2013 10:55 17,2 C 19,2 C 16,2 C 23,3 C 23,3 C 6,1 C 77 % 78 % 100 % 1020,7 hPa 0,0 l/m 2,3 km/h (1 Bft) O-NO 67 5 min 0,0 UV-I 13,1 C 23,3 C 3,2 km/h (1 Bft)
06.06.2013 11:00 17,4 C 19,2 C 16,7 C 23,7 C 23,7 C 6,3 C 77 % 78 % 100 % 1020,7 hPa 0,0 l/m 2,4 km/h (1 Bft) N-NO 22 5 min 0,0 UV-I 13,3 C 23,7 C 3,1 km/h (1 Bft)
06.06.2013 11:05 17,8 C 19,2 C 16,7 C 23,7 C 23,7 C 5,9 C 74 % 77 % 100 % 1020,7 hPa 0,0 l/m 3,5 km/h (1 Bft) O-NO 67 5 min 0,0 UV-I 13,1 C 23,7 C 8,2 km/h (2 Bft)
06.06.2013 11:10 17,7 C 19,3 C 16,7 C 22,5 C 22,5 C 4,8 C 74 % 77 % 100 % 1020,7 hPa 0,0 l/m 5,3 km/h (1 Bft) O-SO 112 5 min 0,0 UV-I 13,0 C 22,5 C 11,1 km/h (2 Bft)
06.06.2013 11:15 17,7 C 19,3 C 16,7 C 22,0 C 22,0 C 4,3 C 73 % 76 % 100 % 1020,8 hPa 0,0 l/m 5,0 km/h (1 Bft) W 270 5 min 0,0 UV-I 12,8 C 22,0 C 2,4 km/h (1 Bft)
06.06.2013 11:20 17,9 C 19,3 C 16,9 C 22,5 C 22,5 C 4,6 C 72 % 76 % 100 % 1020,8 hPa 0,0 l/m 4,0 km/h (1 Bft) O 90 5 min 0,0 UV-I 12,8 C 22,5 C 4,2 km/h (1 Bft)
06.06.2013 11:25 17,8 C 19,3 C 16,9 C 22,0 C 22,0 C 4,2 C 72 % 76 % 100 % 1020,8 hPa 0,0 l/m 4,2 km/h (1 Bft) SO 135 5 min 0,0 UV-I 12,7 C 22,0 C 9,7 km/h (2 Bft)
06.06.2013 11:30 17,8 C 19,3 C 17,1 C 22,3 C 22,3 C 4,5 C 72 % 75 % 100 % 1020,8 hPa 0,0 l/m 5,0 km/h (1 Bft) O 90 5 min 0,0 UV-I 12,7 C 22,3 C 1,8 km/h (1 Bft)
06.06.2013 11:35 18,0 C 19,3 C 17,5 C 23,2 C 23,2 C 5,2 C 73 % 75 % 100 % 1020,8 hPa 0,0 l/m 4,7 km/h (1 Bft) N-NW 337 5 min 0,0 UV-I 13,1 C 23,2 C 2,7 km/h (1 Bft)
06.06.2013 11:40 18,3 C 19,3 C 17,5 C 23,2 C 23,2 C 4,9 C 70 % 73 % 100 % 1020,8 hPa 0,0 l/m 4,2 km/h (1 Bft) O 90 5 min 0,0 UV-I 12,7 C 23,2 C 2,3 km/h (1 Bft)
06.06.2013 11:45 18,3 C 19,3 C 17,6 C 23,4 C 23,4 C 5,1 C 69 % 73 % 100 % 1020,8 hPa 0,0 l/m 5,0 km/h (1 Bft) O 90 5 min 0,0 UV-I 12,5 C 23,4 C 9,0 km/h (2 Bft)
06.06.2013 11:50 18,3 C 19,4 C 17,7 C 22,9 C 22,9 C 4,6 C 68 % 73 % 100 % 1020,8 hPa 0,0 l/m 5,8 km/h (2 Bft) O-NO 67 5 min 0,0 UV-I 12,3 C 22,9 C 10,5 km/h (2 Bft)
06.06.2013 11:55 18,4 C 19,4 C 17,9 C 22,9 C 22,9 C 4,5 C 68 % 72 % 100 % 1020,4 hPa 0,0 l/m 6,4 km/h (2 Bft) O 90 5 min 0,0 UV-I 12,4 C 22,9 C 6,1 km/h (2 Bft)
06.06.2013 12:00 18,5 C 19,4 C 17,8 C 23,2 C 23,2 C 4,7 C 68 % 73 % 100 % 1020,4 hPa 0,0 l/m 6,3 km/h (2 Bft) O-NO 67 5 min 0,0 UV-I 12,5 C 23,2 C 10,1 km/h (2 Bft)
06.06.2013 12:05 18,7 C 19,4 C 17,9 C 23,2 C 23,2 C 4,5 C 69 % 73 % 100 % 1020,4 hPa 0,0 l/m 5,8 km/h (2 Bft) O-NO 67 5 min 0,0 UV-I 12,9 C 23,2 C 3,7 km/h (1 Bft)
06.06.2013 12:10 19,1 C 19,3 C 18,3 C 24,0 C 24,0 C 4,9 C 69 % 74 % 100 % 1020,4 hPa 0,0 l/m 4,5 km/h (1 Bft) NO 45 5 min 0,0 UV-I 13,3 C 24,0 C 4,0 km/h (1 Bft)
06.06.2013 12:15 19,2 C 19,4 C 18,3 C 24,2 C 24,2 C 5,0 C 69 % 74 % 100 % 1020,8 hPa 0,0 l/m 4,2 km/h (1 Bft) O 90 5 min 0,0 UV-I 13,4 C 24,2 C 3,2 km/h (1 Bft)
06.06.2013 12:20 19,2 C 19,4 C 18,3 C 24,5 C 24,5 C 5,3 C 64 % 71 % 100 % 1020,8 hPa 0,0 l/m 4,3 km/h (1 Bft) O-SO 112 5 min 0,1 UV-I 12,2 C 24,5 C 8,2 km/h (2 Bft)
06.06.2013 12:25 19,0 C 19,4 C 18,3 C 23,8 C 23,8 C 4,8 C 67 % 73 % 100 % 1020,8 hPa 0,0 l/m 6,0 km/h (2 Bft) O-NO 67 5 min 0,1 UV-I 12,7 C 23,8 C 7,4 km/h (2 Bft)
06.06.2013 12:30 19,3 C 19,4 C 18,3 C 23,8 C 23,8 C 4,5 C 65 % 71 % 100 % 1020,8 hPa 0,0 l/m 6,3 km/h (2 Bft) O-NO 67 5 min 0,1 UV-I 12,6 C 23,8 C 8,5 km/h (2 Bft)
06.06.2013 12:35 19,1 C 19,4 C 18,2 C 23,5 C 23,5 C 4,4 C 65 % 71 % 100 % 1020,6 hPa 0,0 l/m 6,3 km/h (2 Bft) O 90 5 min 0,1 UV-I 12,4 C 23,5 C 8,2 km/h (2 Bft)
06.06.2013 12:41 19,0 C 19,4 C 18,2 C 23,2 C 23,2 C 4,2 C 66 % 70 % 100 % 1020,6 hPa 0,0 l/m 6,8 km/h (2 Bft) N 0 6 min 0,0 UV-I 12,5 C 23,2 C 4,7 km/h (1 Bft)
06.06.2013 13:00 19,6 C 19,5 C 19,7 C 24,6 C 24,6 C 5,0 C 67 % 69 % 100 % 1020,7 hPa 0,0 l/m 4,3 km/h (1 Bft) O-NO 67 19 min 0,1 UV-I 13,3 C 24,6 C 2,9 km/h (1 Bft)
06.06.2013 13:05 19,9 C 19,6 C 19,4 C 25,0 C 25,0 C 5,1 C 66 % 69 % 100 % 1020,7 hPa 0,0 l/m 3,4 km/h (1 Bft) O 90 5 min 0,1 UV-I 13,4 C 25,0 C 6,0 km/h (2 Bft)
06.06.2013 13:10 19,4 C 19,5 C 19,2 C 23,5 C 23,5 C 4,1 C 66 % 70 % 100 % 1020,7 hPa 0,0 l/m 3,7 km/h (1 Bft) O-SO 112 5 min 0,0 UV-I 12,9 C 23,5 C 6,9 km/h (2 Bft)
06.06.2013 13:15 19,3 C 19,6 C 19,0 C 23,2 C 23,2 C 3,9 C 65 % 69 % 100 % 1020,7 hPa 0,0 l/m 4,7 km/h (1 Bft) O-NO 67 5 min 0,0 UV-I 12,6 C 23,2 C 5,6 km/h (1 Bft)
06.06.2013 13:20 19,4 C 19,6 C 19,3 C 23,8 C 23,8 C 4,4 C 67 % 71 % 100 % 1020,7 hPa 0,0 l/m 4,8 km/h (1 Bft) O-SO 112 5 min 0,0 UV-I 13,1 C 23,8 C 3,7 km/h (1 Bft)
06.06.2013 13:25 19,8 C 19,6 C 19,3 C 24,9 C 24,9 C 5,1 C 66 % 70 % 100 % 1020,7 hPa 0,0 l/m 3,7 km/h (1 Bft) SO 135 5 min 0,0 UV-I 13,3 C 24,9 C 6,6 km/h (2 Bft)
06.06.2013 13:30 19,9 C 19,6 C 19,3 C 25,3 C 25,3 C 5,4 C 66 % 69 % 100 % 1020,7 hPa 0,0 l/m 3,4 km/h (1 Bft) S 180 5 min 0,0 UV-I 13,4 C 25,3 C 3,4 km/h (1 Bft)
06.06.2013 13:35 19,9 C 19,6 C 19,3 C 24,6 C 24,6 C 4,7 C 66 % 70 % 100 % 1020,6 hPa 0,0 l/m 3,5 km/h (1 Bft) O 90 5 min 0,0 UV-I 13,4 C 24,6 C 9,7 km/h (2 Bft)
06.06.2013 13:40 19,7 C 19,6 C 19,5 C 24,5 C 24,5 C 4,8 C 66 % 69 % 100 % 1020,6 hPa 0,0 l/m 3,4 km/h (1 Bft) O-SO 112 5 min 0,0 UV-I 13,2 C 24,5 C 3,9 km/h (1 Bft)
06.06.2013 13:45 19,9 C 19,7 C 19,7 C 25,0 C 25,0 C 5,1 C 67 % 69 % 100 % 1020,6 hPa 0,0 l/m 3,9 km/h (1 Bft) O 90 5 min 0,0 UV-I 13,6 C 25,0 C 2,6 km/h (1 Bft)
06.06.2013 13:50 19,8 C 19,7 C 19,4 C 24,6 C 24,6 C 4,8 C 65 % 69 % 100 % 1020,6 hPa 0,0 l/m 3,5 km/h (1 Bft) O-NO 67 5 min 0,0 UV-I 13,0 C 24,6 C 10,1 km/h (2 Bft)
06.06.2013 13:55 19,5 C 19,7 C 19,3 C 23,7 C 23,7 C 4,2 C 66 % 69 % 100 % 1020,6 hPa 0,0 l/m 3,7 km/h (1 Bft) O-SO 112 5 min 0,0 UV-I 13,0 C 23,7 C 0,0 km/h (0 Bft)
06.06.2013 14:00 19,5 C 19,7 C 19,5 C 23,9 C 23,9 C 4,4 C 65 % 69 % 100 % 1020,6 hPa 0,0 l/m 6,1 km/h (2 Bft) O 90 5 min 0,0 UV-I 12,7 C 23,9 C 11,7 km/h (2 Bft)
06.06.2013 14:05 19,5 C 19,7 C 19,3 C 23,5 C 23,5 C 4,0 C 67 % 70 % 100 % 1020,6 hPa 0,0 l/m 6,1 km/h (2 Bft) O 90 5 min 0,0 UV-I 13,2 C 23,5 C 5,3 km/h (1 Bft)
06.06.2013 14:10 19,6 C 19,8 C 19,6 C 24,4 C 24,4 C 4,8 C 67 % 70 % 100 % 1020,6 hPa 0,0 l/m 5,5 km/h (1 Bft) O-SO 112 5 min 0,0 UV-I 13,3 C 24,4 C 8,5 km/h (2 Bft)
06.06.2013 14:15 19,9 C 19,8 C 19,6 C 25,2 C 25,2 C 5,3 C 68 % 70 % 100 % 1020,7 hPa 0,0 l/m 3,4 km/h (1 Bft) SW 225 5 min 0,0 UV-I 13,8 C 25,2 C 3,4 km/h (1 Bft)
06.06.2013 14:20 20,1 C 19,8 C 19,9 C 26,2 C 26,2 C 6,1 C 66 % 69 % 100 % 1020,7 hPa 0,0 l/m 3,4 km/h (1 Bft) NO 45 5 min 0,1 UV-I 13,5 C 26,2 C 6,0 km/h (2 Bft)
06.06.2013 14:25 20,2 C 19,8 C 19,9 C 25,7 C 25,7 C 5,5 C 66 % 69 % 100 % 1020,7 hPa 0,0 l/m 3,2 km/h (1 Bft) O-NO 67 5 min 0,1 UV-I 13,6 C 25,7 C 3,5 km/h (1 Bft)
06.06.2013 14:30 20,4 C 19,9 C 19,9 C 26,2 C 26,2 C 5,8 C 65 % 68 % 100 % 1020,7 hPa 0,0 l/m 2,4 km/h (1 Bft) O 90 5 min 0,0 UV-I 13,6 C 26,2 C 6,4 km/h (2 Bft)
06.06.2013 14:35 20,2 C 19,9 C 19,6 C 25,3 C 25,3 C 5,1 C 65 % 68 % 100 % 1020,6 hPa 0,0 l/m 2,6 km/h (1 Bft) O-NO 67 5 min 0,0 UV-I 13,4 C 25,3 C 3,4 km/h (1 Bft)
06.06.2013 14:40 20,0 C 19,9 C 19,6 C 24,7 C 24,7 C 4,7 C 65 % 69 % 100 % 1020,6 hPa 0,0 l/m 2,4 km/h (1 Bft) O-NO 67 5 min 0,0 UV-I 13,2 C 24,7 C 0,0 km/h (0 Bft)
06.06.2013 14:45 20,1 C 19,9 C 19,7 C 24,6 C 24,6 C 4,5 C 65 % 69 % 100 % 1020,6 hPa 0,0 l/m 2,3 km/h (1 Bft) O 90 5 min 0,0 UV-I 13,3 C 24,6 C 6,6 km/h (2 Bft)
06.06.2013 14:50 19,8 C 19,9 C 19,5 C 23,5 C 23,5 C 3,7 C 66 % 70 % 97 % 1020,6 hPa 0,0 l/m 3,5 km/h (1 Bft) O-NO 67 5 min 0,0 UV-I 13,3 C 23,5 C 3,9 km/h (1 Bft)
06.06.2013 14:55 19,9 C 19,9 C 19,7 C 23,3 C 23,3 C 3,4 C 66 % 71 % 89 % 1020,5 hPa 0,0 l/m 4,7 km/h (1 Bft) O-NO 67 5 min 0,0 UV-I 13,4 C 23,3 C 7,2 km/h (2 Bft)
06.06.2013 15:00 20,0 C 20,0 C 20,0 C 24,9 C 24,9 C 4,9 C 68 % 70 % 100 % 1020,5 hPa 0,0 l/m 4,0 km/h (1 Bft) O-NO 67 5 min 0,0 UV-I 13,9 C 24,9 C 2,6 km/h (1 Bft)
06.06.2013 15:05 20,4 C 20,0 C 20,3 C 25,8 C 25,8 C 5,4 C 67 % 70 % 100 % 1020,5 hPa 0,0 l/m 3,7 km/h (1 Bft) O-SO 112 5 min 0,0 UV-I 14,1 C 25,8 C 6,1 km/h (2 Bft)
06.06.2013 15:10 20,7 C 20,0 C 20,4 C 26,9 C 26,9 C 6,2 C 66 % 69 % 100 % 1020,5 hPa 0,0 l/m 3,5 km/h (1 Bft) O-SO 112 5 min 0,0 UV-I 14,1 C 26,9 C 4,7 km/h (1 Bft)
06.06.2013 15:15 20,7 C 20,0 C 20,2 C 25,8 C 25,8 C 5,1 C 66 % 69 % 100 % 1020,4 hPa 0,0 l/m 3,5 km/h (1 Bft) NW 315 5 min 0,0 UV-I 14,1 C 25,8 C 3,1 km/h (1 Bft)
06.06.2013 15:20 20,8 C 20,0 C 20,5 C 26,4 C 26,4 C 5,6 C 65 % 69 % 100 % 1020,4 hPa 0,0 l/m 2,9 km/h (1 Bft) O-NO 67 5 min 0,0 UV-I 14,0 C 26,4 C 8,7 km/h (2 Bft)
06.06.2013 15:25 20,7 C 20,0 C 20,3 C 25,6 C 25,6 C 4,9 C 64 % 68 % 100 % 1020,4 hPa 0,0 l/m 4,2 km/h (1 Bft) O-SO 112 5 min 0,0 UV-I 13,6 C 25,6 C 6,0 km/h (2 Bft)
06.06.2013 15:30 20,2 C 20,1 C 20,0 C 24,5 C 24,5 C 4,3 C 66 % 70 % 100 % 1020,4 hPa 0,0 l/m 5,1 km/h (1 Bft) O-NO 67 5 min 0,0 UV-I 13,6 C 24,5 C 2,3 km/h (1 Bft)
06.06.2013 15:35 20,4 C 20,1 C 20,1 C 25,1 C 25,1 C 4,7 C 66 % 70 % 100 % 1020,4 hPa 0,0 l/m 3,7 km/h (1 Bft) NO 45 5 min 0,0 UV-I 13,8 C 25,1 C 4,3 km/h (1 Bft)
06.06.2013 15:40 20,9 C 20,1 C 20,5 C 26,4 C 26,4 C 5,5 C 65 % 67 % 100 % 1020,4 hPa 0,0 l/m 2,7 km/h (1 Bft) SO 135 5 min 0,0 UV-I 14,1 C 26,4 C 0,0 km/h (0 Bft)
06.06.2013 15:45 21,1 C 20,1 C 20,5 C 27,5 C 27,5 C 6,4 C 64 % 68 % 100 % 1020,4 hPa 0,0 l/m 2,6 km/h (1 Bft) NO 45 5 min 0,0 UV-I 14,0 C 27,5 C 8,4 km/h (2 Bft)
06.06.2013 15:50 20,8 C 20,2 C 20,4 C 26,9 C 26,9 C 6,1 C 65 % 68 % 100 % 1020,4 hPa 0,0 l/m 3,2 km/h (1 Bft) N-NW 337 5 min 0,0 UV-I 14,0 C 26,9 C 2,3 km/h (1 Bft)
06.06.2013 15:55 21,1 C 20,2 C 20,7 C 27,3 C 27,3 C 6,2 C 66 % 69 % 100 % 1020,2 hPa 0,0 l/m 3,4 km/h (1 Bft) O-NO 67 5 min 0,0 UV-I 14,5 C 27,3 C 3,2 km/h (1 Bft)
06.06.2013 16:00 21,1 C 20,2 C 20,4 C 27,2 C 27,2 C 6,1 C 64 % 69 % 100 % 1020,2 hPa 0,0 l/m 2,6 km/h (1 Bft) O-NO 67 5 min 0,0 UV-I 14,0 C 27,2 C 4,2 km/h (1 Bft)
06.06.2013 16:05 20,8 C 20,2 C 20,3 C 25,6 C 25,6 C 4,8 C 65 % 69 % 100 % 1020,2 hPa 0,0 l/m 3,7 km/h (1 Bft) O-SO 112 5 min 0,0 UV-I 14,0 C 25,6 C 4,2 km/h (1 Bft)
06.06.2013 16:10 20,9 C 20,2 C 20,5 C 26,3 C 26,3 C 5,4 C 65 % 69 % 100 % 1020,2 hPa 0,0 l/m 3,9 km/h (1 Bft) O-SO 112 5 min 0,0 UV-I 14,1 C 26,3 C 5,6 km/h (1 Bft)
06.06.2013 16:15 20,9 C 20,3 C 20,4 C 26,2 C 26,2 C 5,3 C 66 % 70 % 100 % 1020,1 hPa 0,0 l/m 3,2 km/h (1 Bft) N 360 5 min 0,0 UV-I 14,3 C 26,2 C 2,3 km/h (1 Bft)
06.06.2013 16:20 20,9 C 20,3 C 20,3 C 25,5 C 25,5 C 4,6 C 66 % 70 % 100 % 1020,1 hPa 0,0 l/m 1,8 km/h (1 Bft) W 270 5 min 0,0 UV-I 14,3 C 25,5 C 3,2 km/h (1 Bft)
06.06.2013 16:25 21,1 C 20,3 C 20,4 C 26,2 C 26,2 C 5,1 C 65 % 69 % 100 % 1020,1 hPa 0,0 l/m 1,3 km/h (1 Bft) O 90 5 min 0,0 UV-I 14,3 C 26,2 C 3,4 km/h (1 Bft)
06.06.2013 16:30 20,9 C 20,3 C 20,5 C 26,2 C 26,2 C 5,3 C 65 % 69 % 100 % 1020,1 hPa 0,0 l/m 3,2 km/h (1 Bft) O-NO 67 5 min 0,0 UV-I 14,1 C 26,2 C 3,7 km/h (1 Bft)
06.06.2013 16:35 21,0 C 20,3 C 20,7 C 26,3 C 26,3 C 5,3 C 66 % 68 % 100 % 1019,9 hPa 0,0 l/m 3,7 km/h (1 Bft) N 360 5 min 0,0 UV-I 14,4 C 26,3 C 0,0 km/h (0 Bft)
06.06.2013 16:40 21,3 C 20,4 C 20,7 C 27,2 C 27,2 C 5,9 C 63 % 69 % 100 % 1019,9 hPa 0,0 l/m 2,4 km/h (1 Bft) O-SO 112 5 min 0,0 UV-I 14,0 C 27,2 C 3,4 km/h (1 Bft)
06.06.2013 16:45 21,5 C 20,4 C 20,7 C 27,4 C 27,4 C 5,9 C 64 % 68 % 100 % 1019,9 hPa 0,0 l/m 2,3 km/h (1 Bft) O-NO 67 5 min 0,0 UV-I 14,4 C 27,4 C 2,7 km/h (1 Bft)
06.06.2013 16:50 21,4 C 20,4 C 20,8 C 27,7 C 27,7 C 6,3 C 64 % 68 % 100 % 1019,9 hPa 0,0 l/m 2,9 km/h (1 Bft) N-NW 337 5 min 0,0 UV-I 14,3 C 27,7 C 9,7 km/h (2 Bft)
06.06.2013 16:55 21,4 C 20,4 C 20,8 C 27,5 C 27,5 C 6,1 C 64 % 69 % 100 % 1019,8 hPa 0,0 l/m 3,2 km/h (1 Bft) W-NW 292 5 min 0,0 UV-I 14,3 C 27,5 C 4,5 km/h (1 Bft)
06.06.2013 17:00 21,3 C 20,4 C 20,7 C 27,0 C 27,0 C 5,7 C 62 % 67 % 100 % 1019,8 hPa 0,0 l/m 4,5 km/h (1 Bft) O 90 5 min 0,0 UV-I 13,7 C 27,0 C 7,9 km/h (2 Bft)
06.06.2013 17:05 21,1 C 20,4 C 20,7 C 26,5 C 26,5 C 5,4 C 64 % 67 % 100 % 1019,8 hPa 0,0 l/m 4,3 km/h (1 Bft) SO 135 5 min 0,0 UV-I 14,0 C 26,5 C 2,6 km/h (1 Bft)
06.06.2013 17:10 21,2 C 20,5 C 20,8 C 27,0 C 27,0 C 5,8 C 64 % 68 % 100 % 1019,8 hPa 0,0 l/m 2,7 km/h (1 Bft) N 360 5 min 0,0 UV-I 14,1 C 27,0 C 2,4 km/h (1 Bft)
06.06.2013 17:15 21,3 C 20,5 C 20,8 C 27,0 C 27,0 C 5,7 C 63 % 66 % 100 % 1019,3 hPa 0,0 l/m 2,9 km/h (1 Bft) SO 135 5 min 0,0 UV-I 14,0 C 27,0 C 2,4 km/h (1 Bft)
06.06.2013 17:20 21,4 C 20,5 C 20,9 C 27,6 C 27,6 C 6,2 C 64 % 67 % 100 % 1019,3 hPa 0,0 l/m 2,9 km/h (1 Bft) O-NO 67 5 min 0,0 UV-I 14,3 C 27,6 C 2,6 km/h (1 Bft)
06.06.2013 17:25 21,6 C 20,5 C 20,9 C 27,7 C 27,7 C 6,1 C 62 % 68 % 100 % 1019,3 hPa 0,0 l/m 2,3 km/h (1 Bft) NO 45 5 min 0,0 UV-I 14,0 C 27,7 C 2,3 km/h (1 Bft)
06.06.2013 17:30 21,7 C 20,5 C 20,9 C 27,7 C 27,7 C 6,0 C 62 % 67 % 100 % 1019,3 hPa 0,0 l/m 2,7 km/h (1 Bft) O 90 5 min 0,0 UV-I 14,1 C 27,7 C 6,4 km/h (2 Bft)
06.06.2013 17:35 21,4 C 20,6 C 20,7 C 27,1 C 27,1 C 5,7 C 62 % 67 % 100 % 1019,3 hPa 0,0 l/m 3,5 km/h (1 Bft) O-SO 112 5 min 0,0 UV-I 13,8 C 27,1 C 5,1 km/h (1 Bft)
06.06.2013 17:40 21,2 C 20,6 C 20,9 C 27,1 C 27,1 C 5,9 C 65 % 67 % 100 % 1019,3 hPa 0,0 l/m 3,4 km/h (1 Bft) O-NO 67 5 min 0,0 UV-I 14,4 C 27,1 C 3,1 km/h (1 Bft)
06.06.2013 17:45 21,4 C 20,6 C 21,0 C 27,4 C 27,4 C 6,0 C 64 % 67 % 100 % 1019,3 hPa 0,0 l/m 2,7 km/h (1 Bft) O-NO 67 5 min 0,0 UV-I 14,3 C 27,4 C 4,7 km/h (1 Bft)
06.06.2013 17:50 21,3 C 20,6 C 20,8 C 27,2 C 27,2 C 5,9 C 63 % 66 % 100 % 1019,3 hPa 0,0 l/m 3,5 km/h (1 Bft) O 90 5 min 0,0 UV-I 14,0 C 27,2 C 4,5 km/h (1 Bft)
06.06.2013 17:55 21,1 C 20,6 C 20,5 C 25,6 C 25,6 C 4,5 C 63 % 67 % 100 % 1019,1 hPa 0,0 l/m 4,8 km/h (1 Bft) O 90 5 min 0,0 UV-I 13,8 C 25,6 C 9,8 km/h (2 Bft)
06.06.2013 18:00 21,1 C 20,6 C 20,6 C 25,4 C 25,4 C 4,3 C 65 % 69 % 100 % 1019,1 hPa 0,0 l/m 4,3 km/h (1 Bft) O-SO 112 5 min 0,0 UV-I 14,3 C 25,4 C 3,4 km/h (1 Bft)
06.06.2013 18:05 21,1 C 20,6 C 20,9 C 26,0 C 26,0 C 4,9 C 65 % 67 % 100 % 1019,1 hPa 0,0 l/m 4,5 km/h (1 Bft) O 90 5 min 0,0 UV-I 14,3 C 26,0 C 7,1 km/h (2 Bft)
06.06.2013 18:10 21,3 C 20,7 C 21,0 C 26,5 C 26,5 C 5,2 C 65 % 68 % 100 % 1019,1 hPa 0,0 l/m 4,2 km/h (1 Bft) O-NO 67 5 min 0,0 UV-I 14,4 C 26,5 C 4,8 km/h (1 Bft)
06.06.2013 18:15 21,2 C 20,7 C 20,9 C 26,6 C 26,6 C 5,4 C 65 % 67 % 100 % 1018,9 hPa 0,0 l/m 3,9 km/h (1 Bft) O-NO 67 5 min 0,0 UV-I 14,4 C 26,6 C 2,3 km/h (1 Bft)
06.06.2013 18:20 21,2 C 20,7 C 20,7 C 25,4 C 25,4 C 4,2 C 65 % 68 % 100 % 1018,9 hPa 0,0 l/m 3,4 km/h (1 Bft) O-NO 67 5 min 0,0 UV-I 14,4 C 25,4 C 8,4 km/h (2 Bft)
06.06.2013 18:25 21,1 C 20,7 C 20,7 C 24,7 C 24,7 C 3,6 C 64 % 67 % 95 % 1018,9 hPa 0,0 l/m 4,8 km/h (1 Bft) O 90 5 min 0,0 UV-I 14,0 C 24,7 C 7,9 km/h (2 Bft)
06.06.2013 18:30 20,8 C 20,7 C 20,4 C 23,9 C 23,9 C 3,1 C 65 % 69 % 82 % 1018,9 hPa 0,0 l/m 5,3 km/h (1 Bft) N-NO 22 0 min 0,0 UV-I 14,0 C 23,9 C 1,8 km/h (1 Bft)
06.06.2013 18:35 20,8 C 20,7 C 20,3 C 23,4 C 23,4 C 2,6 C 65 % 69 % 68 % 1018,9 hPa 0,0 l/m 4,2 km/h (1 Bft) O 90 0 min 0,0 UV-I 14,0 C 23,4 C 6,9 km/h (2 Bft)
06.06.2013 18:41 20,6 C 20,7 C 20,0 C 22,4 C 22,4 C 1,8 C 66 % 70 % 47 % 1018,9 hPa 0,0 l/m 4,3 km/h (1 Bft) N 0 0 min 0,0 UV-I 14,0 C 22,4 C 6,1 km/h (2 Bft)
06.06.2013 19:00 20,0 C 20,8 C 19,6 C 20,7 C 20,7 C 0,7 C 68 % 71 % 18 % 1018,8 hPa 0,0 l/m 5,1 km/h (1 Bft) O-NO 67 0 min 0,0 UV-I 13,9 C 20,7 C 3,7 km/h (1 Bft)
06.06.2013 19:05 20,1 C 20,8 C 19,6 C 21,5 C 21,5 C 1,4 C 69 % 71 % 37 % 1018,8 hPa 0,0 l/m 4,3 km/h (1 Bft) O-NO 67 0 min 0,0 UV-I 14,2 C 21,5 C 3,5 km/h (1 Bft)
06.06.2013 19:10 20,3 C 20,8 C 19,8 C 22,6 C 22,6 C 2,3 C 68 % 71 % 61 % 1018,8 hPa 0,0 l/m 3,2 km/h (1 Bft) O-SO 112 0 min 0,0 UV-I 14,2 C 22,6 C 4,5 km/h (1 Bft)
06.06.2013 19:15 20,3 C 20,8 C 19,9 C 23,1 C 23,1 C 2,8 C 67 % 70 % 74 % 1018,9 hPa 0,0 l/m 3,9 km/h (1 Bft) O-NO 67 5 min 0,0 UV-I 14,0 C 23,1 C 7,1 km/h (2 Bft)
06.06.2013 19:20 20,5 C 20,8 C 19,9 C 23,7 C 23,7 C 3,2 C 68 % 72 % 84 % 1018,9 hPa 0,0 l/m 3,1 km/h (1 Bft) O-NO 67 5 min 0,0 UV-I 14,4 C 23,7 C 4,3 km/h (1 Bft)
06.06.2013 19:25 20,4 C 20,8 C 19,9 C 23,9 C 23,9 C 3,5 C 67 % 71 % 92 % 1018,9 hPa 0,0 l/m 3,2 km/h (1 Bft) O-NO 67 5 min 0,0 UV-I 14,1 C 23,9 C 4,7 km/h (1 Bft)
06.06.2013 19:30 20,4 C 20,8 C 19,9 C 23,7 C 23,7 C 3,3 C 67 % 71 % 87 % 1018,9 hPa 0,0 l/m 4,2 km/h (1 Bft) O-SO 112 5 min 0,0 UV-I 14,1 C 23,7 C 5,3 km/h (1 Bft)
06.06.2013 19:35 20,3 C 20,8 C 19,9 C 23,5 C 23,5 C 3,2 C 68 % 72 % 84 % 1018,9 hPa 0,0 l/m 4,0 km/h (1 Bft) NO 45 5 min 0,0 UV-I 14,2 C 23,5 C 3,4 km/h (1 Bft)
06.06.2013 19:40 20,3 C 20,9 C 19,7 C 23,4 C 23,4 C 3,1 C 69 % 73 % 82 % 1018,9 hPa 0,0 l/m 3,7 km/h (1 Bft) O-SO 112 5 min 0,0 UV-I 14,4 C 23,4 C 2,9 km/h (1 Bft)
06.06.2013 19:45 20,3 C 20,8 C 19,7 C 23,3 C 23,3 C 3,0 C 69 % 72 % 79 % 1018,9 hPa 0,0 l/m 3,2 km/h (1 Bft) O 90 5 min 0,0 UV-I 14,4 C 23,3 C 4,3 km/h (1 Bft)
06.06.2013 19:50 20,1 C 20,9 C 19,6 C 23,1 C 23,1 C 3,0 C 70 % 73 % 79 % 1018,9 hPa 0,0 l/m 3,1 km/h (1 Bft) SO 135 5 min 0,0 UV-I 14,5 C 23,1 C 5,0 km/h (1 Bft)
06.06.2013 19:55 20,1 C 20,9 C 19,6 C 22,9 C 22,9 C 2,8 C 69 % 72 % 74 % 1018,8 hPa 0,0 l/m 3,2 km/h (1 Bft) O 90 5 min 0,0 UV-I 14,2 C 22,9 C 4,8 km/h (1 Bft)
06.06.2013 20:00 19,9 C 20,9 C 19,5 C 22,4 C 22,4 C 2,5 C 69 % 73 % 66 % 1018,8 hPa 0,0 l/m 3,7 km/h (1 Bft) O 90 5 min 0,0 UV-I 14,0 C 22,4 C 3,1 km/h (1 Bft)
06.06.2013 20:05 19,9 C 20,9 C 19,5 C 21,9 C 21,9 C 2,0 C 70 % 73 % 53 % 1018,8 hPa 0,0 l/m 3,2 km/h (1 Bft) O 90 5 min 0,0 UV-I 14,3 C 21,9 C 2,9 km/h (1 Bft)
06.06.2013 20:10 19,6 C 20,9 C 19,2 C 20,9 C 20,9 C 1,3 C 70 % 73 % 34 % 1018,8 hPa 0,0 l/m 2,7 km/h (1 Bft) O 90 0 min 0,0 UV-I 14,0 C 20,9 C 3,7 km/h (1 Bft)
06.06.2013 20:15 19,6 C 20,9 C 19,2 C 20,4 C 20,4 C 0,8 C 70 % 74 % 21 % 1018,9 hPa 0,0 l/m 2,9 km/h (1 Bft) O 90 0 min 0,0 UV-I 14,0 C 20,4 C 3,5 km/h (1 Bft)
06.06.2013 20:20 19,5 C 20,9 C 19,1 C 19,9 C 19,9 C 0,4 C 71 % 74 % 11 % 1018,9 hPa 0,0 l/m 3,1 km/h (1 Bft) O 90 0 min 0,0 UV-I 14,1 C 19,9 C 4,0 km/h (1 Bft)
06.06.2013 20:25 19,5 C 20,9 C 18,9 C 19,7 C 19,7 C 0,2 C 71 % 74 % 5 % 1018,9 hPa 0,0 l/m 2,6 km/h (1 Bft) O-NO 67 0 min 0,0 UV-I 14,1 C 19,7 C 2,4 km/h (1 Bft)
06.06.2013 20:30 19,3 C 20,9 C 18,8 C 19,3 C 19,3 C 0,0 C 71 % 74 % 0 % 1018,9 hPa 0,0 l/m 1,9 km/h (1 Bft) O 90 0 min 0,0 UV-I 13,9 C 19,3 C 0,0 km/h (0 Bft)
06.06.2013 20:35 19,2 C 21,0 C 18,7 C 19,2 C 19,2 C 0,0 C 71 % 75 % 0 % 1019,0 hPa 0,0 l/m 1,1 km/h (1 Bft) O 90 0 min 0,0 UV-I 13,8 C 19,2 C 1,8 km/h (1 Bft)
06.06.2013 20:40 19,1 C 21,0 C 18,3 C 19,0 C 18,9 C 0,0 C 72 % 75 % 0 % 1019,0 hPa 0,0 l/m 0,5 km/h (0 Bft) O 90 0 min 0,0 UV-I 13,9 C 18,9 C 0,0 km/h (0 Bft)
06.06.2013 20:45 18,9 C 21,0 C 18,1 C 18,8 C 18,6 C 0,0 C 72 % 76 % 0 % 1019,0 hPa 0,0 l/m 0,5 km/h (0 Bft) O-NO 67 0 min 0,0 UV-I 13,7 C 18,6 C 1,8 km/h (1 Bft)
06.06.2013 20:50 18,8 C 21,0 C 17,9 C 18,7 C 18,4 C 0,0 C 73 % 76 % 0 % 1019,0 hPa 0,0 l/m 0,2 km/h (0 Bft) O-NO 67 0 min 0,0 UV-I 13,9 C 18,4 C 0,0 km/h (0 Bft)
06.06.2013 20:55 18,7 C 21,0 C 17,7 C 18,5 C 18,1 C 0,0 C 74 % 77 % 0 % 1018,9 hPa 0,0 l/m 0,0 km/h (0 Bft) O-NO 67 0 min 0,0 UV-I 14,0 C 18,1 C 0,0 km/h (0 Bft)
06.06.2013 21:00 18,4 C 21,1 C 17,3 C 18,2 C 17,8 C 0,0 C 74 % 78 % 0 % 1018,9 hPa 0,0 l/m 0,0 km/h (0 Bft) O-NO 67 0 min 0,0 UV-I 13,7 C 17,8 C 0,0 km/h (0 Bft)
06.06.2013 21:05 18,3 C 21,2 C 17,1 C 18,0 C 17,5 C 0,0 C 75 % 78 % 0 % 1018,9 hPa 0,0 l/m 0,0 km/h (0 Bft) O-NO 67 0 min 0,0 UV-I 13,8 C 17,5 C 0,0 km/h (0 Bft)
06.06.2013 21:10 18,1 C 21,2 C 17,0 C 17,8 C 17,1 C 0,0 C 76 % 79 % 0 % 1018,9 hPa 0,0 l/m 0,0 km/h (0 Bft) NO 45 0 min 0,0 UV-I 13,8 C 17,1 C 0,0 km/h (0 Bft)
06.06.2013 21:15 17,9 C 21,2 C 16,9 C 17,6 C 16,9 C 0,0 C 76 % 79 % 0 % 1019,2 hPa 0,0 l/m 0,0 km/h (0 Bft) NO 45 0 min 0,0 UV-I 13,6 C 16,9 C 0,0 km/h (0 Bft)
06.06.2013 21:20 17,7 C 21,2 C 16,6 C 17,3 C 16,6 C 0,0 C 76 % 79 % 0 % 1019,2 hPa 0,0 l/m 0,0 km/h (0 Bft) NO 45 0 min 0,0 UV-I 13,4 C 16,6 C 0,0 km/h (0 Bft)
06.06.2013 21:25 17,5 C 21,2 C 16,5 C 17,1 C 16,4 C 0,0 C 77 % 80 % 0 % 1019,2 hPa 0,0 l/m 0,0 km/h (0 Bft) NO 45 0 min 0,0 UV-I 13,4 C 16,4 C 0,0 km/h (0 Bft)
06.06.2013 21:30 17,3 C 21,3 C 16,2 C 16,9 C 16,1 C 0,0 C 78 % 80 % 0 % 1019,2 hPa 0,0 l/m 0,0 km/h (0 Bft) O-NO 67 0 min 0,0 UV-I 13,4 C 16,1 C 0,0 km/h (0 Bft)
06.06.2013 21:35 17,1 C 21,4 C 16,0 C 16,7 C 15,8 C 0,0 C 78 % 80 % 0 % 1019,4 hPa 0,0 l/m 0,0 km/h (0 Bft) O-NO 67 0 min 0,0 UV-I 13,2 C 15,8 C 0,0 km/h (0 Bft)
06.06.2013 21:40 16,9 C 21,4 C 15,8 C 16,4 C 15,4 C 0,0 C 79 % 81 % 0 % 1019,4 hPa 0,0 l/m 0,0 km/h (0 Bft) O-NO 67 0 min 0,0 UV-I 13,2 C 15,4 C 0,0 km/h (0 Bft)
06.06.2013 21:45 16,7 C 21,4 C 15,6 C 16,2 C 15,2 C 0,0 C 80 % 81 % 0 % 1019,4 hPa 0,0 l/m 0,0 km/h (0 Bft) O-NO 67 0 min 0,0 UV-I 13,2 C 15,2 C 0,0 km/h (0 Bft)
06.06.2013 21:50 16,5 C 21,4 C 15,5 C 15,9 C 14,8 C 0,0 C 80 % 81 % 0 % 1019,4 hPa 0,0 l/m 0,0 km/h (0 Bft) O-SO 112 0 min 0,0 UV-I 13,0 C 14,8 C 0,0 km/h (0 Bft)
06.06.2013 21:55 16,4 C 21,4 C 15,3 C 15,8 C 14,7 C 0,0 C 81 % 81 % 0 % 1019,3 hPa 0,0 l/m 0,0 km/h (0 Bft) NO 45 0 min 0,0 UV-I 13,1 C 14,7 C 0,0 km/h (0 Bft)
06.06.2013 22:00 16,1 C 21,4 C 15,2 C 15,5 C 14,4 C 0,0 C 81 % 82 % 0 % 1019,3 hPa 0,0 l/m 0,0 km/h (0 Bft) O-NO 67 0 min 0,0 UV-I 12,8 C 14,4 C 0,0 km/h (0 Bft)
06.06.2013 22:05 15,9 C 21,5 C 15,1 C 15,4 C 14,4 C 0,0 C 82 % 82 % 0 % 1019,3 hPa 0,0 l/m 0,0 km/h (0 Bft) O 90 0 min 0,0 UV-I 12,8 C 14,4 C 0,0 km/h (0 Bft)
06.06.2013 22:10 15,7 C 21,5 C 14,9 C 15,2 C 14,1 C 0,0 C 82 % 82 % 0 % 1019,3 hPa 0,0 l/m 0,0 km/h (0 Bft) NO 45 0 min 0,0 UV-I 12,6 C 14,1 C 0,0 km/h (0 Bft)
06.06.2013 22:15 15,5 C 21,5 C 14,8 C 15,0 C 14,1 C 0,0 C 83 % 83 % 0 % 1020,1 hPa 0,0 l/m 0,0 km/h (0 Bft) NO 45 0 min 0,0 UV-I 12,6 C 14,1 C 0,0 km/h (0 Bft)
06.06.2013 22:20 15,1 C 21,6 C 14,8 C 14,7 C 14,0 C 0,0 C 83 % 83 % 0 % 1020,1 hPa 0,0 l/m 0,0 km/h (0 Bft) O 90 0 min 0,0 UV-I 12,2 C 14,0 C 0,0 km/h (0 Bft)
06.06.2013 22:25 14,9 C 21,6 C 14,8 C 14,6 C 13,9 C 0,0 C 84 % 83 % 0 % 1020,1 hPa 0,0 l/m 0,0 km/h (0 Bft) O 90 0 min 0,0 UV-I 12,2 C 13,9 C 0,0 km/h (0 Bft)
06.06.2013 22:30 14,7 C 21,6 C 14,7 C 14,4 C 13,8 C 0,0 C 83 % 83 % 0 % 1020,1 hPa 0,0 l/m 0,0 km/h (0 Bft) NO 45 0 min 0,0 UV-I 11,8 C 13,8 C 0,0 km/h (0 Bft)
06.06.2013 22:35 14,4 C 21,5 C 14,5 C 14,2 C 13,7 C 0,0 C 84 % 83 % 0 % 1019,7 hPa 0,0 l/m 0,0 km/h (0 Bft) NO 45 0 min 0,0 UV-I 11,7 C 13,7 C 0,0 km/h (0 Bft)
06.06.2013 22:40 14,3 C 21,5 C 14,4 C 14,1 C 13,6 C 0,0 C 84 % 83 % 0 % 1019,7 hPa 0,0 l/m 0,0 km/h (0 Bft) NO 45 0 min 0,0 UV-I 11,6 C 13,6 C 0,0 km/h (0 Bft)
06.06.2013 22:45 14,1 C 21,5 C 14,5 C 13,9 C 13,4 C 0,0 C 84 % 83 % 0 % 1019,7 hPa 0,0 l/m 0,0 km/h (0 Bft) NO 45 0 min 0,0 UV-I 11,4 C 13,4 C 0,0 km/h (0 Bft)
06.06.2013 22:50 13,8 C 21,5 C 14,2 C 13,6 C 13,3 C 0,0 C 84 % 83 % 0 % 1019,7 hPa 0,0 l/m 0,0 km/h (0 Bft) NO 45 0 min 0,0 UV-I 11,1 C 13,3 C 0,0 km/h (0 Bft)
06.06.2013 22:55 13,7 C 21,5 C 14,1 C 13,5 C 13,1 C 0,0 C 84 % 83 % 0 % 1019,7 hPa 0,0 l/m 0,0 km/h (0 Bft) NO 45 0 min 0,0 UV-I 11,0 C 13,1 C 0,0 km/h (0 Bft)
06.06.2013 23:00 13,5 C 21,5 C 14,0 C 13,3 C 12,9 C 0,0 C 84 % 83 % 0 % 1019,7 hPa 0,0 l/m 0,0 km/h (0 Bft) N-NO 22 0 min 0,0 UV-I 10,8 C 12,9 C 0,0 km/h (0 Bft)
06.06.2013 23:05 13,5 C 21,4 C 13,9 C 13,3 C 12,9 C 0,0 C 85 % 83 % 0 % 1019,7 hPa 0,0 l/m 0,0 km/h (0 Bft) N-NO 22 0 min 0,0 UV-I 11,0 C 12,9 C 0,0 km/h (0 Bft)
06.06.2013 23:10 13,3 C 21,4 C 13,7 C 13,1 C 12,8 C 0,0 C 85 % 84 % 0 % 1019,7 hPa 0,0 l/m 0,0 km/h (0 Bft) N-NO 22 0 min 0,0 UV-I 10,8 C 12,8 C 0,0 km/h (0 Bft)
06.06.2013 23:15 13,1 C 21,5 C 13,7 C 13,0 C 12,8 C 0,0 C 85 % 84 % 0 % 1019,8 hPa 0,0 l/m 0,0 km/h (0 Bft) O 90 0 min 0,0 UV-I 10,6 C 12,8 C 0,0 km/h (0 Bft)
06.06.2013 23:20 12,9 C 21,5 C 13,6 C 12,8 C 12,7 C 0,0 C 85 % 84 % 0 % 1019,8 hPa 0,0 l/m 0,0 km/h (0 Bft) O 90 0 min 0,0 UV-I 10,4 C 12,7 C 0,0 km/h (0 Bft)
06.06.2013 23:25 12,8 C 21,6 C 13,5 C 12,7 C 12,6 C 0,0 C 85 % 84 % 0 % 1019,8 hPa 0,0 l/m 0,0 km/h (0 Bft) O 90 0 min 0,0 UV-I 10,3 C 12,6 C 0,0 km/h (0 Bft)
06.06.2013 23:30 12,7 C 21,6 C 13,5 C 12,7 C 12,6 C 0,0 C 86 % 84 % 0 % 1019,8 hPa 0,0 l/m 0,0 km/h (0 Bft) O 90 0 min 0,0 UV-I 10,4 C 12,6 C 0,0 km/h (0 Bft)
06.06.2013 23:35 12,7 C 21,6 C 13,5 C 12,7 C 12,6 C 0,0 C 86 % 84 % 0 % 1019,6 hPa 0,0 l/m 0,0 km/h (0 Bft) O-NO 67 0 min 0,0 UV-I 10,4 C 12,6 C 0,0 km/h (0 Bft)
06.06.2013 23:40 12,4 C 21,6 C 13,3 C 12,4 C 12,4 C 0,0 C 86 % 84 % 0 % 1019,6 hPa 0,0 l/m 0,0 km/h (0 Bft) N-NO 22 0 min 0,0 UV-I 10,1 C 12,4 C 0,0 km/h (0 Bft)
06.06.2013 23:45 12,4 C 21,5 C 13,2 C 12,4 C 12,3 C 0,0 C 86 % 84 % 0 % 1019,6 hPa 0,0 l/m 0,0 km/h (0 Bft) N-NO 22 0 min 0,0 UV-I 10,1 C 12,3 C 0,0 km/h (0 Bft)
06.06.2013 23:50 12,3 C 21,6 C 13,1 C 12,3 C 12,2 C 0,0 C 86 % 84 % 0 % 1019,6 hPa 0,0 l/m 0,0 km/h (0 Bft) S-SW 202 0 min 0,0 UV-I 10,0 C 12,2 C 0,0 km/h (0 Bft)
06.06.2013 23:55 12,1 C 21,6 C 13,1 C 12,2 C 12,2 C 0,1 C 86 % 84 % 0 % 1019,8 hPa 0,0 l/m 0,0 km/h (0 Bft) S-SW 202 0 min 0,0 UV-I 9,8 C 12,2 C 0,0 km/h (0 Bft)
_ Min-Zeit 05:55 08:20 05:30 04:35 04:35 00:00 17:00 17:15 00:00 19:00 - 00:00 - - - 00:00 05:55 04:35 00:00
Minimum _ 5,4 C 19,2 C 7,1 C 6,0 C 6,0 C 0,0 C 62 % 66 % 0 % 1018,8 hPa - 0,0 km/h (0 Bft) - - - 0,0 UV-I 3,7 C 6,0 C 0,0 km/h (0 Bft)
_ Max-Zeit 17:30 22:20 17:45 16:50 16:50 08:45 08:10 03:20 07:55 09:55 00:00 12:41 - - 13:00 07:00 15:55 16:50 14:00
Maximum _ 21,7 C 21,6 C 21,0 C 27,7 C 27,7 C 11,7 C 93 % 86 % 100 % 1021,5 hPa 0,0 l/m 6,8 km/h
N (2 Bft)
- - 19 min 0,2 UV-I 14,5 C 27,7 C 11,7 km/h
O (2 Bft)
Durchschnitt _ 14,2 C 20,2 C 14,5 C 17,2 C 17,1 C 3,0 C 78 % 78 % 53 % 1020,1 hPa #0,0 l/m 1,8 km/h (1 Bft) O-NO - #11:45 h 0,1 UV-I 10,2 C 17,1 C 2,3 km/h (1 Bft)
2013 www.wetterstation-wechselburg.de